Trinidad — LAIY4 — position and weather

sailwx.info

Track history (hours):
 
Tides and Currents Weather Stations Pressure Air Temp Water Temp Dewpoint Dewpoint Depression Visibility Wind Speed Wind Dir Waves Ship Positions

Trinidad

Last reported at 2016-Mar-05 05:24 UTC. Time now 2016-May-04 00:01 UTC.
Position N 31°56' E 120°11'.
Warning: this ship's position is 59 days out of date.

Length 189 m; draft 8.8 m.

Type: Cargo ship. MMSI: 257425411.

Date/timePositionNaut miles runAvg speedWind from/ knotsBaromVisibWave heightAir tempDewpointWater temp
2016-Mar-05 05:24N 31°56' E 120°11'5 6.3
2016-Mar-05 04:32N 31°57' E 120°17'10 9.3
2016-Mar-05 03:28N 32°02' E 120°27'1110.7
2016-Mar-05 02:26N 31°60' E 120°40'1011.4
2016-Mar-05 01:33N 31°57' E 120°52'1312.6
2016-Mar-05 00:32N 31°47' E 121°00'1212.7
2016-Mar-04 23:33N 31°40' E 121°12'3 2.8
2016-Mar-04 22:32N 31°38' E 121°15'0 0.1
2016-Mar-04 21:32N 31°38' E 121°15'0 0.0
2016-Mar-04 20:32N 31°38' E 121°15'0 0.1
2016-Mar-04 19:32N 31°38' E 121°15'0 0.0
2016-Mar-04 18:32N 31°38' E 121°15'0 0.1
2016-Mar-04 17:32N 31°39' E 121°15'0 0.1
2016-Mar-04 16:32N 31°39' E 121°15'0 0.0
2016-Mar-04 15:29N 31°39' E 121°15'0 0.1
2016-Mar-04 14:32N 31°39' E 121°15'4 3.8
2016-Mar-04 13:34N 31°36' E 121°18'1110.7
2016-Mar-04 12:33N 31°28' E 121°27'8 8.3
2016-Mar-04 11:33N 31°23' E 121°35'8 8.4
2016-Mar-04 10:33N 31°19' E 121°43'1110.1
2016-Mar-04 09:29N 31°16' E 121°55'  
Track history (hours):
 
Tides and Currents Weather Stations Pressure Air Temp Water Temp Dewpoint Dewpoint Depression Visibility Wind Speed Wind Dir Waves Ship Positions

Trinidad

Last reported at 2016-Mar-05 05:24 UTC. Time now 2016-May-04 00:01 UTC.
Position N 31°56' E 120°11'.
Warning: this ship's position is 59 days out of date.

Length 189 m; draft 8.8 m.

Type: Cargo ship. MMSI: 257425411.

Date/timePositionNaut miles runAvg speedWind from/ knotsBaromVisibWave heightAir tempDewpointWater temp
2016-Mar-05 05:24N 31°56' E 120°11'5 6.3
2016-Mar-05 04:32N 31°57' E 120°17'10 9.3
2016-Mar-05 03:28N 32°02' E 120°27'1110.7
2016-Mar-05 02:26N 31°60' E 120°40'1011.4
2016-Mar-05 01:33N 31°57' E 120°52'1312.6
2016-Mar-05 00:32N 31°47' E 121°00'1212.7
2016-Mar-04 23:33N 31°40' E 121°12'3 2.8
2016-Mar-04 22:32N 31°38' E 121°15'0 0.1
2016-Mar-04 21:32N 31°38' E 121°15'0 0.0
2016-Mar-04 20:32N 31°38' E 121°15'0 0.1
2016-Mar-04 19:32N 31°38' E 121°15'0 0.0
2016-Mar-04 18:32N 31°38' E 121°15'0 0.1
2016-Mar-04 17:32N 31°39' E 121°15'0 0.1
2016-Mar-04 16:32N 31°39' E 121°15'0 0.0
2016-Mar-04 15:29N 31°39' E 121°15'0 0.1
2016-Mar-04 14:32N 31°39' E 121°15'4 3.8
2016-Mar-04 13:34N 31°36' E 121°18'1110.7
2016-Mar-04 12:33N 31°28' E 121°27'8 8.3
2016-Mar-04 11:33N 31°23' E 121°35'8 8.4
2016-Mar-04 10:33N 31°19' E 121°43'1110.1
2016-Mar-04 09:29N 31°16' E 121°55'  

Dump ship's entire track history